sensor_id;sensor_type;location;lat;lon;timestamp;P1;durP1;ratioP1;P2;durP2;ratioP2
11986;SDS011;6053;51.382;6.768;2023-04-01T00:01:16;0.88;;;0.68;;
11986;SDS011;6053;51.382;6.768;2023-04-01T00:03:44;1.00;;;0.70;;
11986;SDS011;6053;51.382;6.768;2023-04-01T00:06:14;1.37;;;1.00;;
11986;SDS011;6053;51.382;6.768;2023-04-01T00:08:46;1.30;;;0.90;;
11986;SDS011;6053;51.382;6.768;2023-04-01T00:11:15;1.50;;;0.73;;
11986;SDS011;6053;51.382;6.768;2023-04-01T00:13:46;0.90;;;0.90;;
11986;SDS011;6053;51.382;6.768;2023-04-01T00:16:15;0.93;;;0.77;;
11986;SDS011;6053;51.382;6.768;2023-04-01T00:18:48;1.80;;;0.80;;
11986;SDS011;6053;51.382;6.768;2023-04-01T00:21:17;0.70;;;0.70;;
11986;SDS011;6053;51.382;6.768;2023-04-01T00:23:49;0.68;;;0.60;;
11986;SDS011;6053;51.382;6.768;2023-04-01T00:26:18;1.38;;;0.70;;
11986;SDS011;6053;51.382;6.768;2023-04-01T00:28:48;1.03;;;0.70;;
11986;SDS011;6053;51.382;6.768;2023-04-01T00:31:17;0.60;;;0.60;;
11986;SDS011;6053;51.382;6.768;2023-04-01T00:33:46;1.13;;;0.60;;
11986;SDS011;6053;51.382;6.768;2023-04-01T00:36:15;1.20;;;0.70;;
11986;SDS011;6053;51.382;6.768;2023-04-01T00:38:45;1.15;;;0.75;;
11986;SDS011;6053;51.382;6.768;2023-04-01T00:41:15;0.80;;;0.80;;
11986;SDS011;6053;51.382;6.768;2023-04-01T00:43:46;0.70;;;0.70;;
11986;SDS011;6053;51.382;6.768;2023-04-01T00:46:17;0.70;;;0.60;;
11986;SDS011;6053;51.382;6.768;2023-04-01T00:48:47;0.60;;;0.60;;
11986;SDS011;6053;51.382;6.768;2023-04-01T00:51:19;0.70;;;0.70;;
11986;SDS011;6053;51.382;6.768;2023-04-01T00:53:52;0.60;;;0.60;;
11986;SDS011;6053;51.382;6.768;2023-04-01T00:56:25;0.60;;;0.60;;
11986;SDS011;6053;51.382;6.768;2023-04-01T00:58:58;0.88;;;0.73;;
11986;SDS011;6053;51.382;6.768;2023-04-01T01:01:34;0.63;;;0.63;;
11986;SDS011;6053;51.382;6.768;2023-04-01T01:04:03;0.77;;;0.77;;
11986;SDS011;6053;51.382;6.768;2023-04-01T01:06:38;0.60;;;0.60;;
11986;SDS011;6053;51.382;6.768;2023-04-01T01:09:18;0.98;;;0.70;;
11986;SDS011;6053;51.382;6.768;2023-04-01T01:12:05;1.25;;;0.90;;
11986;SDS011;6053;51.382;6.768;2023-04-01T01:14:45;1.13;;;0.73;;
11986;SDS011;6053;51.382;6.768;2023-04-01T01:17:26;0.80;;;0.63;;
11986;SDS011;6053;51.382;6.768;2023-04-01T01:23:36;1.40;;;0.60;;
11986;SDS011;6053;51.382;6.768;2023-04-01T01:26:55;0.80;;;0.80;;
11986;SDS011;6053;51.382;6.768;2023-04-01T01:29:41;0.70;;;0.70;;
11986;SDS011;6053;51.382;6.768;2023-04-01T01:32:33;0.50;;;0.50;;
11986;SDS011;6053;51.382;6.768;2023-04-01T01:35:36;0.60;;;0.60;;
11986;SDS011;6053;51.382;6.768;2023-04-01T01:38:09;0.60;;;0.60;;
11986;SDS011;6053;51.382;6.768;2023-04-01T01:40:42;0.55;;;0.55;;
11986;SDS011;6053;51.382;6.768;2023-04-01T01:43:18;1.05;;;0.77;;
11986;SDS011;6053;51.382;6.768;2023-04-01T01:45:52;0.77;;;0.77;;
11986;SDS011;6053;51.382;6.768;2023-04-01T01:48:24;0.95;;;0.68;;
11986;SDS011;6053;51.382;6.768;2023-04-01T01:50:57;0.70;;;0.70;;
11986;SDS011;6053;51.382;6.768;2023-04-01T01:53:26;1.53;;;0.73;;
11986;SDS011;6053;51.382;6.768;2023-04-01T01:55:54;0.60;;;0.60;;
11986;SDS011;6053;51.382;6.768;2023-04-01T01:58:23;0.52;;;0.52;;
11986;SDS011;6053;51.382;6.768;2023-04-01T02:00:58;0.50;;;0.50;;
11986;SDS011;6053;51.382;6.768;2023-04-01T02:03:30;1.25;;;0.60;;
11986;SDS011;6053;51.382;6.768;2023-04-01T02:06:05;0.60;;;0.60;;
11986;SDS011;6053;51.382;6.768;2023-04-01T02:08:39;0.55;;;0.55;;
11986;SDS011;6053;51.382;6.768;2023-04-01T02:11:12;1.20;;;0.65;;
11986;SDS011;6053;51.382;6.768;2023-04-01T02:13:47;0.57;;;0.50;;
11986;SDS011;6053;51.382;6.768;2023-04-01T02:16:20;0.60;;;0.60;;
11986;SDS011;6053;51.382;6.768;2023-04-01T02:18:53;0.60;;;0.60;;
11986;SDS011;6053;51.382;6.768;2023-04-01T02:21:27;0.50;;;0.50;;
11986;SDS011;6053;51.382;6.768;2023-04-01T02:24:00;0.80;;;0.80;;
11986;SDS011;6053;51.382;6.768;2023-04-01T02:26:32;0.70;;;0.70;;
11986;SDS011;6053;51.382;6.768;2023-04-01T02:29:02;0.52;;;0.47;;
11986;SDS011;6053;51.382;6.768;2023-04-01T02:31:36;0.70;;;0.63;;
11986;SDS011;6053;51.382;6.768;2023-04-01T02:34:04;0.70;;;0.70;;
11986;SDS011;6053;51.382;6.768;2023-04-01T02:36:35;0.77;;;0.77;;
11986;SDS011;6053;51.382;6.768;2023-04-01T02:39:05;2.90;;;0.90;;
11986;SDS011;6053;51.382;6.768;2023-04-01T02:41:38;0.70;;;0.70;;
11986;SDS011;6053;51.382;6.768;2023-04-01T02:44:07;2.13;;;0.77;;
11986;SDS011;6053;51.382;6.768;2023-04-01T02:46:36;0.60;;;0.60;;
11986;SDS011;6053;51.382;6.768;2023-04-01T02:49:05;0.50;;;0.50;;
11986;SDS011;6053;51.382;6.768;2023-04-01T02:51:33;0.50;;;0.50;;
11986;SDS011;6053;51.382;6.768;2023-04-01T02:54:03;0.70;;;0.70;;
11986;SDS011;6053;51.382;6.768;2023-04-01T02:56:32;0.70;;;0.70;;
11986;SDS011;6053;51.382;6.768;2023-04-01T02:59:00;0.70;;;0.70;;
11986;SDS011;6053;51.382;6.768;2023-04-01T03:01:29;1.73;;;0.70;;
11986;SDS011;6053;51.382;6.768;2023-04-01T03:03:57;0.40;;;0.40;;
11986;SDS011;6053;51.382;6.768;2023-04-01T03:06:25;0.80;;;0.50;;
11986;SDS011;6053;51.382;6.768;2023-04-01T03:08:55;0.77;;;0.60;;
11986;SDS011;6053;51.382;6.768;2023-04-01T03:11:23;0.85;;;0.60;;
11986;SDS011;6053;51.382;6.768;2023-04-01T03:13:52;0.57;;;0.57;;
11986;SDS011;6053;51.382;6.768;2023-04-01T03:16:20;0.60;;;0.60;;
11986;SDS011;6053;51.382;6.768;2023-04-01T03:18:49;1.40;;;0.60;;
11986;SDS011;6053;51.382;6.768;2023-04-01T03:21:19;0.65;;;0.65;;
11986;SDS011;6053;51.382;6.768;2023-04-01T03:23:49;0.40;;;0.40;;
11986;SDS011;6053;51.382;6.768;2023-04-01T03:26:19;0.50;;;0.50;;
11986;SDS011;6053;51.382;6.768;2023-04-01T03:28:47;0.60;;;0.60;;
11986;SDS011;6053;51.382;6.768;2023-04-01T03:31:16;0.65;;;0.65;;
11986;SDS011;6053;51.382;6.768;2023-04-01T03:33:47;0.70;;;0.70;;
11986;SDS011;6053;51.382;6.768;2023-04-01T03:36:16;0.70;;;0.60;;
11986;SDS011;6053;51.382;6.768;2023-04-01T03:38:44;0.57;;;0.50;;
11986;SDS011;6053;51.382;6.768;2023-04-01T03:41:14;0.57;;;0.57;;
11986;SDS011;6053;51.382;6.768;2023-04-01T03:43:45;0.50;;;0.50;;
11986;SDS011;6053;51.382;6.768;2023-04-01T03:46:16;0.63;;;0.63;;
11986;SDS011;6053;51.382;6.768;2023-04-01T03:48:45;0.75;;;0.75;;
11986;SDS011;6053;51.382;6.768;2023-04-01T03:51:14;0.40;;;0.40;;
11986;SDS011;6053;51.382;6.768;2023-04-01T03:53:42;0.40;;;0.40;;
11986;SDS011;6053;51.382;6.768;2023-04-01T03:56:11;0.50;;;0.50;;
11986;SDS011;6053;51.382;6.768;2023-04-01T03:58:39;0.63;;;0.63;;
11986;SDS011;6053;51.382;6.768;2023-04-01T04:01:16;1.00;;;0.63;;
11986;SDS011;6053;51.382;6.768;2023-04-01T04:03:47;0.47;;;0.47;;
11986;SDS011;6053;51.382;6.768;2023-04-01T04:06:17;0.60;;;0.60;;
11986;SDS011;6053;51.382;6.768;2023-04-01T04:08:46;0.43;;;0.43;;
11986;SDS011;6053;51.382;6.768;2023-04-01T04:11:15;0.75;;;0.68;;
11986;SDS011;6053;51.382;6.768;2023-04-01T04:13:44;0.40;;;0.40;;
11986;SDS011;6053;51.382;6.768;2023-04-01T04:16:14;0.90;;;0.52;;
11986;SDS011;6053;51.382;6.768;2023-04-01T04:18:44;0.50;;;0.50;;
11986;SDS011;6053;51.382;6.768;2023-04-01T04:21:13;0.50;;;0.50;;
11986;SDS011;6053;51.382;6.768;2023-04-01T04:23:42;0.60;;;0.60;;
11986;SDS011;6053;51.382;6.768;2023-04-01T04:26:11;0.40;;;0.40;;
11986;SDS011;6053;51.382;6.768;2023-04-01T04:28:42;0.47;;;0.47;;
11986;SDS011;6053;51.382;6.768;2023-04-01T04:31:10;0.50;;;0.50;;
11986;SDS011;6053;51.382;6.768;2023-04-01T04:33:40;0.40;;;0.40;;
11986;SDS011;6053;51.382;6.768;2023-04-01T04:36:08;0.63;;;0.63;;
11986;SDS011;6053;51.382;6.768;2023-04-01T04:38:37;0.50;;;0.50;;
11986;SDS011;6053;51.382;6.768;2023-04-01T04:41:08;0.60;;;0.60;;
11986;SDS011;6053;51.382;6.768;2023-04-01T04:43:38;0.50;;;0.50;;
11986;SDS011;6053;51.382;6.768;2023-04-01T04:46:07;0.35;;;0.35;;
11986;SDS011;6053;51.382;6.768;2023-04-01T04:48:36;0.50;;;0.50;;
11986;SDS011;6053;51.382;6.768;2023-04-01T04:51:06;0.52;;;0.40;;
11986;SDS011;6053;51.382;6.768;2023-04-01T04:53:34;0.50;;;0.50;;
11986;SDS011;6053;51.382;6.768;2023-04-01T04:56:02;0.33;;;0.33;;
11986;SDS011;6053;51.382;6.768;2023-04-01T04:58:31;0.70;;;0.50;;
11986;SDS011;6053;51.382;6.768;2023-04-01T05:01:04;0.50;;;0.50;;
11986;SDS011;6053;51.382;6.768;2023-04-01T05:03:34;0.50;;;0.50;;
11986;SDS011;6053;51.382;6.768;2023-04-01T05:06:03;0.50;;;0.50;;
11986;SDS011;6053;51.382;6.768;2023-04-01T05:08:34;0.50;;;0.50;;
11986;SDS011;6053;51.382;6.768;2023-04-01T05:11:06;0.70;;;0.70;;
11986;SDS011;6053;51.382;6.768;2023-04-01T05:13:39;0.60;;;0.60;;
11986;SDS011;6053;51.382;6.768;2023-04-01T05:16:08;0.50;;;0.50;;
11986;SDS011;6053;51.382;6.768;2023-04-01T05:18:38;0.40;;;0.40;;
11986;SDS011;6053;51.382;6.768;2023-04-01T05:21:08;0.40;;;0.40;;
11986;SDS011;6053;51.382;6.768;2023-04-01T05:23:38;0.63;;;0.63;;
11986;SDS011;6053;51.382;6.768;2023-04-01T05:26:08;0.50;;;0.50;;
11986;SDS011;6053;51.382;6.768;2023-04-01T05:28:38;0.50;;;0.50;;
11986;SDS011;6053;51.382;6.768;2023-04-01T05:31:07;0.70;;;0.70;;
11986;SDS011;6053;51.382;6.768;2023-04-01T05:33:36;0.80;;;0.80;;
11986;SDS011;6053;51.382;6.768;2023-04-01T05:36:05;1.00;;;0.80;;
11986;SDS011;6053;51.382;6.768;2023-04-01T05:38:37;0.38;;;0.38;;
11986;SDS011;6053;51.382;6.768;2023-04-01T05:41:05;0.50;;;0.50;;
11986;SDS011;6053;51.382;6.768;2023-04-01T05:43:35;0.50;;;0.50;;
11986;SDS011;6053;51.382;6.768;2023-04-01T05:46:03;0.65;;;0.65;;
11986;SDS011;6053;51.382;6.768;2023-04-01T05:48:32;0.77;;;0.77;;
11986;SDS011;6053;51.382;6.768;2023-04-01T05:51:01;0.55;;;0.55;;
11986;SDS011;6053;51.382;6.768;2023-04-01T05:53:31;0.70;;;0.70;;
11986;SDS011;6053;51.382;6.768;2023-04-01T05:56:02;0.70;;;0.70;;
11986;SDS011;6053;51.382;6.768;2023-04-01T05:58:31;0.80;;;0.80;;
11986;SDS011;6053;51.382;6.768;2023-04-01T06:01:00;0.60;;;0.60;;
11986;SDS011;6053;51.382;6.768;2023-04-01T06:03:37;0.95;;;0.95;;
11986;SDS011;6053;51.382;6.768;2023-04-01T06:06:09;0.67;;;0.67;;
11986;SDS011;6053;51.382;6.768;2023-04-01T06:08:43;0.80;;;0.80;;
11986;SDS011;6053;51.382;6.768;2023-04-01T06:11:15;0.90;;;0.90;;
11986;SDS011;6053;51.382;6.768;2023-04-01T06:14:04;0.88;;;0.88;;
11986;SDS011;6053;51.382;6.768;2023-04-01T06:16:48;0.90;;;0.90;;
11986;SDS011;6053;51.382;6.768;2023-04-01T06:19:34;0.85;;;0.85;;
11986;SDS011;6053;51.382;6.768;2023-04-01T06:22:18;0.80;;;0.80;;
11986;SDS011;6053;51.382;6.768;2023-04-01T06:31:45;0.90;;;0.90;;
11986;SDS011;6053;51.382;6.768;2023-04-01T06:34:31;0.80;;;0.80;;
11986;SDS011;6053;51.382;6.768;2023-04-01T06:37:26;0.57;;;0.57;;
11986;SDS011;6053;51.382;6.768;2023-04-01T06:43:48;1.02;;;0.50;;
11986;SDS011;6053;51.382;6.768;2023-04-01T06:46:29;0.83;;;0.83;;
11986;SDS011;6053;51.382;6.768;2023-04-01T06:49:15;0.90;;;0.90;;
11986;SDS011;6053;51.382;6.768;2023-04-01T06:51:59;0.70;;;0.70;;
11986;SDS011;6053;51.382;6.768;2023-04-01T06:54:40;0.90;;;0.90;;
11986;SDS011;6053;51.382;6.768;2023-04-01T06:57:19;0.50;;;0.50;;
11986;SDS011;6053;51.382;6.768;2023-04-01T06:59:56;0.90;;;0.90;;
11986;SDS011;6053;51.382;6.768;2023-04-01T07:02:28;0.70;;;0.70;;
11986;SDS011;6053;51.382;6.768;2023-04-01T07:05:06;0.90;;;0.90;;
11986;SDS011;6053;51.382;6.768;2023-04-01T07:07:37;0.90;;;0.90;;
11986;SDS011;6053;51.382;6.768;2023-04-01T07:10:11;0.40;;;0.40;;
11986;SDS011;6053;51.382;6.768;2023-04-01T07:12:47;0.68;;;0.68;;
11986;SDS011;6053;51.382;6.768;2023-04-01T07:15:22;0.80;;;0.80;;
11986;SDS011;6053;51.382;6.768;2023-04-01T07:17:58;0.70;;;0.70;;
11986;SDS011;6053;51.382;6.768;2023-04-01T07:20:35;0.90;;;0.80;;
11986;SDS011;6053;51.382;6.768;2023-04-01T07:23:06;1.05;;;0.70;;
11986;SDS011;6053;51.382;6.768;2023-04-01T07:25:43;0.60;;;0.60;;
11986;SDS011;6053;51.382;6.768;2023-04-01T07:28:16;0.50;;;0.50;;
11986;SDS011;6053;51.382;6.768;2023-04-01T07:30:46;2.70;;;0.90;;
11986;SDS011;6053;51.382;6.768;2023-04-01T07:33:32;0.80;;;0.80;;
11986;SDS011;6053;51.382;6.768;2023-04-01T07:36:08;0.70;;;0.70;;
11986;SDS011;6053;51.382;6.768;2023-04-01T07:38:47;1.58;;;1.48;;
11986;SDS011;6053;51.382;6.768;2023-04-01T07:41:28;0.80;;;0.80;;
11986;SDS011;6053;51.382;6.768;2023-04-01T07:44:11;0.70;;;0.70;;
11986;SDS011;6053;51.382;6.768;2023-04-01T07:46:49;1.67;;;1.45;;
11986;SDS011;6053;51.382;6.768;2023-04-01T07:49:33;1.30;;;1.25;;
11986;SDS011;6053;51.382;6.768;2023-04-01T07:52:11;1.65;;;1.55;;
11986;SDS011;6053;51.382;6.768;2023-04-01T07:54:46;1.38;;;1.27;;
11986;SDS011;6053;51.382;6.768;2023-04-01T07:57:22;1.60;;;1.42;;
11986;SDS011;6053;51.382;6.768;2023-04-01T08:00:04;2.00;;;1.88;;
11986;SDS011;6053;51.382;6.768;2023-04-01T08:02:43;2.53;;;2.00;;
11986;SDS011;6053;51.382;6.768;2023-04-01T08:05:32;1.50;;;1.40;;
11986;SDS011;6053;51.382;6.768;2023-04-01T08:08:12;1.70;;;1.43;;
11986;SDS011;6053;51.382;6.768;2023-04-01T08:10:48;1.40;;;1.40;;
11986;SDS011;6053;51.382;6.768;2023-04-01T08:13:25;1.63;;;1.33;;
11986;SDS011;6053;51.382;6.768;2023-04-01T08:16:08;1.17;;;1.13;;
11986;SDS011;6053;51.382;6.768;2023-04-01T08:18:46;1.90;;;1.77;;
11986;SDS011;6053;51.382;6.768;2023-04-01T08:21:28;3.33;;;3.03;;
11986;SDS011;6053;51.382;6.768;2023-04-01T08:24:00;3.42;;;2.22;;
11986;SDS011;6053;51.382;6.768;2023-04-01T08:26:39;3.72;;;2.00;;
11986;SDS011;6053;51.382;6.768;2023-04-01T08:29:11;2.72;;;2.03;;
11986;SDS011;6053;51.382;6.768;2023-04-01T08:31:49;1.60;;;1.50;;
11986;SDS011;6053;51.382;6.768;2023-04-01T08:34:23;1.52;;;1.42;;
11986;SDS011;6053;51.382;6.768;2023-04-01T08:36:57;1.80;;;1.70;;
11986;SDS011;6053;51.382;6.768;2023-04-01T08:39:31;1.77;;;1.67;;
11986;SDS011;6053;51.382;6.768;2023-04-01T08:45:25;1.83;;;1.50;;
11986;SDS011;6053;51.382;6.768;2023-04-01T08:48:57;3.15;;;2.28;;
11986;SDS011;6053;51.382;6.768;2023-04-01T08:54:46;1.88;;;1.77;;
11986;SDS011;6053;51.382;6.768;2023-04-01T08:57:53;1.88;;;1.77;;
11986;SDS011;6053;51.382;6.768;2023-04-01T09:00:46;1.88;;;1.77;;
11986;SDS011;6053;51.382;6.768;2023-04-01T09:03:31;2.35;;;2.15;;
11986;SDS011;6053;51.382;6.768;2023-04-01T09:06:21;2.22;;;2.13;;
11986;SDS011;6053;51.382;6.768;2023-04-01T09:09:12;1.40;;;1.30;;
11986;SDS011;6053;51.382;6.768;2023-04-01T09:22:07;2.10;;;1.88;;
11986;SDS011;6053;51.382;6.768;2023-04-01T09:28:08;1.90;;;1.80;;
11986;SDS011;6053;51.382;6.768;2023-04-01T09:30:48;1.35;;;1.25;;
11986;SDS011;6053;51.382;6.768;2023-04-01T09:33:55;2.17;;;2.05;;
11986;SDS011;6053;51.382;6.768;2023-04-01T09:36:49;1.38;;;1.30;;
11986;SDS011;6053;51.382;6.768;2023-04-01T09:39:36;1.20;;;1.20;;
11986;SDS011;6053;51.382;6.768;2023-04-01T09:42:15;2.88;;;2.58;;
11986;SDS011;6053;51.382;6.768;2023-04-01T09:45:09;1.93;;;1.83;;
11986;SDS011;6053;51.382;6.768;2023-04-01T09:47:55;2.38;;;2.17;;
11986;SDS011;6053;51.382;6.768;2023-04-01T09:50:39;1.85;;;1.75;;
11986;SDS011;6053;51.382;6.768;2023-04-01T09:53:19;2.72;;;2.25;;
11986;SDS011;6053;51.382;6.768;2023-04-01T09:56:18;2.47;;;2.27;;
11986;SDS011;6053;51.382;6.768;2023-04-01T09:59:29;1.48;;;1.38;;
11986;SDS011;6053;51.382;6.768;2023-04-01T10:09:36;3.35;;;2.83;;
11986;SDS011;6053;51.382;6.768;2023-04-01T10:12:51;2.63;;;2.45;;
11986;SDS011;6053;51.382;6.768;2023-04-01T10:16:03;2.75;;;2.55;;
11986;SDS011;6053;51.382;6.768;2023-04-01T10:19:16;3.03;;;2.60;;
11986;SDS011;6053;51.382;6.768;2023-04-01T10:22:18;2.60;;;2.40;;
11986;SDS011;6053;51.382;6.768;2023-04-01T10:25:05;2.53;;;2.35;;
11986;SDS011;6053;51.382;6.768;2023-04-01T10:41:44;11.43;;;6.43;;
11986;SDS011;6053;51.382;6.768;2023-04-01T10:48:02;4.93;;;3.70;;
11986;SDS011;6053;51.382;6.768;2023-04-01T10:56:49;3.20;;;2.90;;
11986;SDS011;6053;51.382;6.768;2023-04-01T11:16:04;1.30;;;1.13;;
11986;SDS011;6053;51.382;6.768;2023-04-01T11:22:38;2.13;;;2.03;;
11986;SDS011;6053;51.382;6.768;2023-04-01T11:25:59;2.87;;;2.57;;
11986;SDS011;6053;51.382;6.768;2023-04-01T11:31:49;1.90;;;1.80;;
11986;SDS011;6053;51.382;6.768;2023-04-01T11:37:29;3.40;;;3.10;;
11986;SDS011;6053;51.382;6.768;2023-04-01T11:40:11;2.85;;;2.35;;
11986;SDS011;6053;51.382;6.768;2023-04-01T11:42:52;3.00;;;2.70;;
11986;SDS011;6053;51.382;6.768;2023-04-01T11:45:34;3.00;;;2.70;;
11986;SDS011;6053;51.382;6.768;2023-04-01T11:48:14;3.40;;;2.25;;
11986;SDS011;6053;51.382;6.768;2023-04-01T11:51:14;2.23;;;2.03;;
11986;SDS011;6053;51.382;6.768;2023-04-01T11:54:26;2.03;;;1.83;;
11986;SDS011;6053;51.382;6.768;2023-04-01T11:57:10;1.83;;;1.70;;
11986;SDS011;6053;51.382;6.768;2023-04-01T12:00:30;1.93;;;1.83;;
11986;SDS011;6053;51.382;6.768;2023-04-01T12:06:57;4.57;;;2.50;;
11986;SDS011;6053;51.382;6.768;2023-04-01T12:09:34;4.00;;;2.10;;
11986;SDS011;6053;51.382;6.768;2023-04-01T12:12:14;2.10;;;2.00;;
11986;SDS011;6053;51.382;6.768;2023-04-01T12:14:58;2.78;;;2.30;;
11986;SDS011;6053;51.382;6.768;2023-04-01T12:17:43;1.90;;;1.80;;
11986;SDS011;6053;51.382;6.768;2023-04-01T12:20:24;1.77;;;1.67;;
11986;SDS011;6053;51.382;6.768;2023-04-01T12:23:11;1.77;;;1.67;;
11986;SDS011;6053;51.382;6.768;2023-04-01T12:26:00;1.33;;;1.33;;
11986;SDS011;6053;51.382;6.768;2023-04-01T12:28:45;1.33;;;1.33;;
11986;SDS011;6053;51.382;6.768;2023-04-01T12:31:34;1.10;;;1.10;;
11986;SDS011;6053;51.382;6.768;2023-04-01T12:34:29;2.20;;;2.00;;
11986;SDS011;6053;51.382;6.768;2023-04-01T12:37:28;2.20;;;2.10;;
11986;SDS011;6053;51.382;6.768;2023-04-01T12:40:17;1.67;;;1.58;;
11986;SDS011;6053;51.382;6.768;2023-04-01T12:43:02;1.98;;;1.88;;
11986;SDS011;6053;51.382;6.768;2023-04-01T12:45:52;2.13;;;1.83;;
11986;SDS011;6053;51.382;6.768;2023-04-01T12:48:39;2.03;;;1.92;;
11986;SDS011;6053;51.382;6.768;2023-04-01T12:51:50;2.17;;;2.08;;
11986;SDS011;6053;51.382;6.768;2023-04-01T12:54:59;1.20;;;1.20;;
11986;SDS011;6053;51.382;6.768;2023-04-01T13:04:25;2.75;;;2.40;;
11986;SDS011;6053;51.382;6.768;2023-04-01T13:07:22;3.58;;;2.92;;
11986;SDS011;6053;51.382;6.768;2023-04-01T13:10:18;1.95;;;1.85;;
11986;SDS011;6053;51.382;6.768;2023-04-01T13:13:14;2.80;;;2.60;;
11986;SDS011;6053;51.382;6.768;2023-04-01T13:16:11;3.40;;;2.22;;
11986;SDS011;6053;51.382;6.768;2023-04-01T13:18:51;3.40;;;2.70;;
11986;SDS011;6053;51.382;6.768;2023-04-01T13:21:29;3.75;;;3.15;;
11986;SDS011;6053;51.382;6.768;2023-04-01T13:24:09;2.67;;;2.47;;
11986;SDS011;6053;51.382;6.768;2023-04-01T13:26:53;2.45;;;2.30;;
11986;SDS011;6053;51.382;6.768;2023-04-01T13:29:31;1.67;;;1.58;;
11986;SDS011;6053;51.382;6.768;2023-04-01T13:32:05;1.90;;;1.80;;
11986;SDS011;6053;51.382;6.768;2023-04-01T13:35:18;2.33;;;1.73;;
11986;SDS011;6053;51.382;6.768;2023-04-01T13:38:06;2.13;;;2.03;;
11986;SDS011;6053;51.382;6.768;2023-04-01T13:41:09;0.93;;;0.93;;
11986;SDS011;6053;51.382;6.768;2023-04-01T13:43:50;3.17;;;2.50;;
11986;SDS011;6053;51.382;6.768;2023-04-01T13:46:31;2.10;;;1.83;;
11986;SDS011;6053;51.382;6.768;2023-04-01T13:55:26;1.60;;;1.50;;
11986;SDS011;6053;51.382;6.768;2023-04-01T13:58:49;3.00;;;2.70;;
11986;SDS011;6053;51.382;6.768;2023-04-01T14:01:53;2.75;;;2.42;;
11986;SDS011;6053;51.382;6.768;2023-04-01T14:04:40;2.17;;;1.90;;
11986;SDS011;6053;51.382;6.768;2023-04-01T14:07:31;2.97;;;2.38;;
11986;SDS011;6053;51.382;6.768;2023-04-01T14:10:13;2.95;;;2.60;;
11986;SDS011;6053;51.382;6.768;2023-04-01T14:12:49;1.80;;;1.70;;
11986;SDS011;6053;51.382;6.768;2023-04-01T14:15:32;1.85;;;1.75;;
11986;SDS011;6053;51.382;6.768;2023-04-01T14:21:12;1.60;;;1.50;;
11986;SDS011;6053;51.382;6.768;2023-04-01T14:24:03;1.42;;;1.42;;
11986;SDS011;6053;51.382;6.768;2023-04-01T14:29:50;1.13;;;1.13;;
11986;SDS011;6053;51.382;6.768;2023-04-01T14:32:35;1.30;;;1.30;;
11986;SDS011;6053;51.382;6.768;2023-04-01T14:35:19;1.42;;;1.33;;
11986;SDS011;6053;51.382;6.768;2023-04-01T14:38:04;0.60;;;0.60;;
11986;SDS011;6053;51.382;6.768;2023-04-01T14:41:03;1.20;;;1.20;;
11986;SDS011;6053;51.382;6.768;2023-04-01T14:44:01;1.47;;;1.40;;
11986;SDS011;6053;51.382;6.768;2023-04-01T14:50:04;1.40;;;1.40;;
11986;SDS011;6053;51.382;6.768;2023-04-01T14:52:39;1.40;;;1.30;;
11986;SDS011;6053;51.382;6.768;2023-04-01T14:55:21;0.52;;;0.52;;
11986;SDS011;6053;51.382;6.768;2023-04-01T14:58:00;2.13;;;1.30;;
11986;SDS011;6053;51.382;6.768;2023-04-01T15:00:41;1.30;;;1.30;;
11986;SDS011;6053;51.382;6.768;2023-04-01T15:03:22;1.20;;;1.20;;
11986;SDS011;6053;51.382;6.768;2023-04-01T15:06:07;1.50;;;1.40;;
11986;SDS011;6053;51.382;6.768;2023-04-01T15:09:04;1.30;;;1.30;;
11986;SDS011;6053;51.382;6.768;2023-04-01T15:11:43;1.42;;;1.33;;
11986;SDS011;6053;51.382;6.768;2023-04-01T15:14:33;1.23;;;1.13;;
11986;SDS011;6053;51.382;6.768;2023-04-01T15:17:18;0.82;;;0.82;;
11986;SDS011;6053;51.382;6.768;2023-04-01T15:20:14;0.90;;;0.90;;
11986;SDS011;6053;51.382;6.768;2023-04-01T15:23:17;1.40;;;1.40;;
11986;SDS011;6053;51.382;6.768;2023-04-01T15:28:56;1.23;;;1.23;;
11986;SDS011;6053;51.382;6.768;2023-04-01T15:31:44;0.90;;;0.90;;
11986;SDS011;6053;51.382;6.768;2023-04-01T15:34:26;1.20;;;1.20;;
11986;SDS011;6053;51.382;6.768;2023-04-01T15:37:04;1.27;;;1.27;;
11986;SDS011;6053;51.382;6.768;2023-04-01T15:39:46;1.33;;;1.23;;
11986;SDS011;6053;51.382;6.768;2023-04-01T15:42:26;0.55;;;0.55;;
11986;SDS011;6053;51.382;6.768;2023-04-01T15:45:13;1.52;;;1.50;;
11986;SDS011;6053;51.382;6.768;2023-04-01T15:48:02;2.78;;;1.60;;
11986;SDS011;6053;51.382;6.768;2023-04-01T15:50:58;1.10;;;1.10;;
11986;SDS011;6053;51.382;6.768;2023-04-01T15:53:44;1.50;;;1.40;;
11986;SDS011;6053;51.382;6.768;2023-04-01T15:56:51;1.17;;;1.17;;
11986;SDS011;6053;51.382;6.768;2023-04-01T15:59:38;1.85;;;1.45;;
11986;SDS011;6053;51.382;6.768;2023-04-01T16:02:47;1.10;;;1.10;;
11986;SDS011;6053;51.382;6.768;2023-04-01T16:05:28;1.40;;;1.30;;
11986;SDS011;6053;51.382;6.768;2023-04-01T16:08:12;1.08;;;1.00;;
11986;SDS011;6053;51.382;6.768;2023-04-01T16:11:12;0.70;;;0.70;;
11986;SDS011;6053;51.382;6.768;2023-04-01T16:13:54;0.52;;;0.52;;
11986;SDS011;6053;51.382;6.768;2023-04-01T16:16:36;1.02;;;0.98;;
11986;SDS011;6053;51.382;6.768;2023-04-01T16:19:35;1.10;;;1.10;;
11986;SDS011;6053;51.382;6.768;2023-04-01T16:22:14;1.20;;;1.17;;
11986;SDS011;6053;51.382;6.768;2023-04-01T16:24:51;1.13;;;1.02;;
11986;SDS011;6053;51.382;6.768;2023-04-01T16:27:29;0.50;;;0.50;;
11986;SDS011;6053;51.382;6.768;2023-04-01T16:30:22;1.30;;;1.20;;
11986;SDS011;6053;51.382;6.768;2023-04-01T16:33:01;1.15;;;1.15;;
11986;SDS011;6053;51.382;6.768;2023-04-01T16:35:40;0.90;;;0.90;;
11986;SDS011;6053;51.382;6.768;2023-04-01T16:38:16;1.10;;;1.10;;
11986;SDS011;6053;51.382;6.768;2023-04-01T16:40:57;0.70;;;0.70;;
11986;SDS011;6053;51.382;6.768;2023-04-01T16:43:38;0.73;;;0.73;;
11986;SDS011;6053;51.382;6.768;2023-04-01T16:46:18;0.60;;;0.60;;
11986;SDS011;6053;51.382;6.768;2023-04-01T16:52:13;0.70;;;0.70;;
11986;SDS011;6053;51.382;6.768;2023-04-01T16:54:47;0.95;;;0.95;;
11986;SDS011;6053;51.382;6.768;2023-04-01T16:57:24;0.50;;;0.50;;
11986;SDS011;6053;51.382;6.768;2023-04-01T16:59:58;0.50;;;0.50;;
11986;SDS011;6053;51.382;6.768;2023-04-01T17:02:45;0.80;;;0.80;;
11986;SDS011;6053;51.382;6.768;2023-04-01T17:05:32;1.30;;;1.30;;
11986;SDS011;6053;51.382;6.768;2023-04-01T17:08:19;0.73;;;0.73;;
11986;SDS011;6053;51.382;6.768;2023-04-01T17:10:59;0.70;;;0.70;;
11986;SDS011;6053;51.382;6.768;2023-04-01T17:13:40;1.20;;;1.10;;
11986;SDS011;6053;51.382;6.768;2023-04-01T17:16:24;0.80;;;0.80;;
11986;SDS011;6053;51.382;6.768;2023-04-01T17:19:21;0.88;;;0.88;;
11986;SDS011;6053;51.382;6.768;2023-04-01T17:22:11;0.60;;;0.60;;
11986;SDS011;6053;51.382;6.768;2023-04-01T17:24:57;0.70;;;0.70;;
11986;SDS011;6053;51.382;6.768;2023-04-01T17:27:40;0.90;;;0.90;;
11986;SDS011;6053;51.382;6.768;2023-04-01T17:30:25;1.17;;;1.17;;
11986;SDS011;6053;51.382;6.768;2023-04-01T17:33:06;0.50;;;0.50;;
11986;SDS011;6053;51.382;6.768;2023-04-01T17:35:56;0.73;;;0.73;;
11986;SDS011;6053;51.382;6.768;2023-04-01T17:42:06;0.80;;;0.80;;
11986;SDS011;6053;51.382;6.768;2023-04-01T17:44:44;0.98;;;0.98;;
11986;SDS011;6053;51.382;6.768;2023-04-01T17:47:27;0.70;;;0.70;;
11986;SDS011;6053;51.382;6.768;2023-04-01T17:50:20;0.80;;;0.80;;
11986;SDS011;6053;51.382;6.768;2023-04-01T17:52:58;1.50;;;1.40;;
11986;SDS011;6053;51.382;6.768;2023-04-01T17:55:49;0.95;;;0.95;;
11986;SDS011;6053;51.382;6.768;2023-04-01T17:58:28;0.73;;;0.73;;
11986;SDS011;6053;51.382;6.768;2023-04-01T18:04:07;1.67;;;1.58;;
11986;SDS011;6053;51.382;6.768;2023-04-01T18:07:10;1.07;;;0.97;;
11986;SDS011;6053;51.382;6.768;2023-04-01T18:09:58;1.73;;;1.63;;
11986;SDS011;6053;51.382;6.768;2023-04-01T18:12:53;0.75;;;0.70;;
11986;SDS011;6053;51.382;6.768;2023-04-01T18:15:49;1.05;;;1.05;;
11986;SDS011;6053;51.382;6.768;2023-04-01T18:18:34;0.93;;;0.93;;
11986;SDS011;6053;51.382;6.768;2023-04-01T18:21:13;0.60;;;0.60;;
11986;SDS011;6053;51.382;6.768;2023-04-01T18:23:51;0.50;;;0.50;;
11986;SDS011;6053;51.382;6.768;2023-04-01T18:26:30;1.65;;;1.55;;
11986;SDS011;6053;51.382;6.768;2023-04-01T18:29:03;0.70;;;0.70;;